Potts Camp, MS (38659)

6:53 PM CST on December 05, 2016 (GMT -0600)
Holly Springs | | Change Station

Elev 577 ft 34.77 °N, 89.46 °W | Updated 2 minutes ago

Light Rain
Light Rain
47.3 °F
Feels Like 47 °F
N
0.0
Wind Variable Wind from NW
Gusts 0.0 mph

Today
High -- | Low -- °F
--% Chance of Precip.
Yesterday
High -- | Low -- °F
Precip. -- in
Pressure 29.80 in
Visibility 4.0 miles
Clouds Overcast 400 ft
Windchill 47 °F
Dew Point 47 °F
Humidity 98%
Rainfall 0.07 in
Snow Depth Not available.
6:49 AM 4:46 PM
Waxing Crescent, 36% visible
METAR KUOX 060035Z AUTO 10004KT 4SM -RA OVC004 08/08 A2980 RMK AO2
Pressure 29.80 in
Visibility 4.0 miles
Clouds Overcast 400 ft
Windchill 47 °F
Dew Point 47 °F
Humidity 98%
Rainfall 0.07 in
Snow Depth Not available.
6:49 AM 4:46 PM
Waxing Crescent, 36% visible
METAR KUOX 060035Z AUTO 10004KT 4SM -RA OVC004 08/08 A2980 RMK AO2

10-Day Weather Forecast

Almanac

Astronomy

Dec. 05, 2016 Rise Set
Actual Time
Civil Twilight
Nautical Twilight
Astronomical Twilight
Moon
Length of Visible Light
Length of Day
Tomorrow will be .
, % of the Moon is Illuminated

Today's Extremes

State Highs State Lows

Community

WunderPhotos

Upload Photos

1,955,886 photos uploaded!

WunderBlog® & News

Nearby

Air Quality

  Air Quality AQ Index Pollutant
Not available.

Snow Depth

Station Depth Elevation

Earthquake Activity

City Distance Mag. Time & Date
Minimum magnitude displayed is 2.5.

Coastal Water Temperatures

Place Temperature

Stations

Nearby Weather Stations

Station Location Temp. Windchill Dew Point Humidity Wind Precip. Elev Updated Type
                   

Watches & Warnings

There are currently no watches in effect.